createdAt,value
2017-05-27T00:00:51.627Z,17.22
2017-05-27T00:01:48.988Z,17.21
2017-05-27T00:02:45.315Z,17.21
2017-05-27T00:03:41.635Z,17.20
2017-05-27T00:04:37.928Z,17.20
2017-05-27T00:05:34.231Z,17.19
2017-05-27T00:06:30.544Z,17.20
2017-05-27T00:07:26.836Z,17.19
2017-05-27T00:10:42.740Z,17.19
2017-05-27T00:11:39.032Z,17.20
2017-05-27T00:12:35.320Z,17.20
2017-05-27T00:13:31.612Z,17.21
2017-05-27T00:14:27.943Z,17.20
2017-05-27T00:15:24.223Z,17.21
2017-05-27T00:16:20.590Z,17.21
2017-05-27T00:17:17.800Z,17.21
2017-05-27T00:18:15.186Z,17.22
2017-05-27T00:19:11.419Z,17.21
2017-05-27T00:20:08.721Z,17.22
2017-05-27T00:21:05.072Z,17.22
2017-05-27T00:22:01.509Z,17.21
2017-05-27T00:22:57.900Z,17.19
2017-05-27T00:23:54.208Z,17.20
2017-05-27T00:24:50.471Z,17.20
2017-05-27T00:25:48.732Z,17.19
2017-05-27T00:26:45.011Z,17.20
2017-05-27T00:27:43.364Z,17.18
2017-05-27T00:28:41.612Z,17.20
2017-05-27T00:29:38.129Z,17.19
2017-05-27T00:30:34.499Z,17.18
2017-05-27T00:31:30.871Z,17.17
2017-05-27T00:32:28.271Z,17.17
2017-05-27T00:33:24.605Z,17.18
2017-05-27T00:34:20.960Z,17.17
2017-05-27T00:36:24.273Z,17.17
2017-05-27T00:37:20.607Z,17.17
2017-05-27T00:38:17.904Z,17.16
2017-05-27T00:39:14.289Z,17.15
2017-05-27T00:40:11.615Z,17.16
2017-05-27T00:41:09.021Z,17.15
2017-05-27T00:49:03.814Z,17.08
2017-05-27T00:50:01.104Z,17.08
2017-05-27T00:50:58.441Z,17.06
2017-05-27T00:51:54.819Z,17.05
2017-05-27T00:52:52.072Z,17.03
2017-05-27T00:53:52.500Z,17.02
2017-05-27T00:54:48.881Z,17.00
2017-05-27T00:55:45.176Z,16.99
2017-05-27T00:56:42.269Z,16.97
2017-05-27T00:57:38.598Z,16.96
2017-05-27T00:58:35.791Z,16.94
2017-05-27T00:59:32.291Z,16.92
2017-05-27T01:00:28.575Z,16.92
2017-05-27T01:01:24.860Z,16.91
2017-05-27T01:02:21.262Z,16.89
2017-05-27T01:03:17.543Z,16.87
2017-05-27T01:04:13.899Z,16.86
2017-05-27T01:05:10.279Z,16.84
2017-05-27T01:06:06.595Z,16.82
2017-05-27T01:07:02.871Z,16.80
2017-05-27T01:07:59.224Z,16.80
2017-05-27T01:08:55.528Z,16.78
2017-05-27T01:09:52.775Z,16.76
2017-05-27T01:11:53.416Z,16.71
2017-05-27T01:12:49.780Z,16.70
2017-05-27T01:13:46.281Z,16.68
2017-05-27T01:14:42.687Z,16.66
2017-05-27T01:15:39.971Z,16.63
2017-05-27T01:20:04.943Z,16.56
2017-05-27T01:21:02.187Z,16.54
2017-05-27T01:21:58.564Z,16.51
2017-05-27T01:22:55.824Z,16.50
2017-05-27T01:23:52.124Z,16.49
2017-05-27T01:24:48.565Z,16.49
2017-05-27T01:25:44.896Z,16.48
2017-05-27T01:26:41.227Z,16.46
2017-05-27T01:27:37.515Z,16.46
2017-05-27T01:29:38.896Z,16.46
2017-05-27T01:30:35.350Z,16.45
2017-05-27T01:31:31.655Z,16.46
2017-05-27T01:32:28.738Z,16.46
2017-05-27T01:33:25.240Z,16.47
2017-05-27T01:34:21.643Z,16.47
2017-05-27T01:35:18.008Z,16.48
2017-05-27T01:36:14.384Z,16.48
2017-05-27T01:37:10.707Z,16.49
2017-05-27T01:38:07.089Z,16.49
2017-05-27T01:39:03.387Z,16.50
2017-05-27T01:40:00.644Z,16.51
2017-05-27T01:40:59.856Z,16.51
2017-05-27T01:41:56.296Z,16.51
2017-05-27T01:42:52.603Z,16.53
2017-05-27T01:44:54.040Z,16.55
2017-05-27T01:45:50.512Z,16.56
2017-05-27T01:46:47.663Z,16.57
2017-05-27T01:47:43.955Z,16.59
2017-05-27T01:48:40.272Z,16.59
2017-05-27T01:49:36.595Z,16.60
2017-05-27T01:50:32.914Z,16.61
2017-05-27T01:51:29.372Z,16.62
2017-05-27T01:52:26.750Z,16.62
2017-05-27T01:53:23.447Z,16.64
2017-05-27T01:54:19.767Z,16.65
2017-05-27T01:55:16.047Z,16.68
2017-05-27T01:56:13.203Z,16.76
2017-05-27T01:57:09.477Z,16.84
2017-05-27T01:58:06.685Z,16.92
2017-05-27T01:59:03.763Z,16.99
2017-05-27T02:00:00.039Z,17.06
2017-05-27T02:00:56.340Z,17.12
2017-05-27T02:01:53.364Z,17.18
2017-05-27T02:02:50.600Z,17.23
2017-05-27T02:03:46.889Z,17.27
2017-05-27T02:04:43.180Z,17.30
2017-05-27T02:05:41.355Z,17.36
2017-05-27T02:06:37.675Z,17.40
2017-05-27T02:07:33.958Z,17.44
2017-05-27T02:08:31.232Z,17.47
2017-05-27T02:09:27.545Z,17.51
2017-05-27T02:10:24.735Z,17.54
2017-05-27T02:11:21.027Z,17.57
2017-05-27T02:12:17.359Z,17.58
2017-05-27T02:13:14.419Z,17.61
2017-05-27T02:14:10.751Z,17.62
2017-05-27T02:15:07.239Z,17.62
2017-05-27T02:16:03.503Z,17.64
2017-05-27T02:16:59.811Z,17.65
2017-05-27T02:17:56.088Z,17.66
2017-05-27T02:18:52.353Z,17.66
2017-05-27T02:19:48.638Z,17.64
2017-05-27T02:20:45.671Z,17.63
2017-05-27T02:21:41.976Z,17.65
2017-05-27T02:22:38.275Z,17.64
2017-05-27T02:23:34.604Z,17.64
2017-05-27T02:24:30.875Z,17.63
2017-05-27T02:25:27.196Z,17.63
2017-05-27T02:26:23.508Z,17.63
2017-05-27T02:27:19.775Z,17.63
2017-05-27T02:28:16.063Z,17.63
2017-05-27T02:29:12.367Z,17.62
2017-05-27T02:30:08.681Z,17.62
2017-05-27T02:31:05.955Z,17.62
2017-05-27T02:32:03.138Z,17.61
2017-05-27T02:32:59.407Z,17.61
2017-05-27T02:33:55.700Z,17.61
2017-05-27T02:34:52.888Z,17.60
2017-05-27T02:35:49.939Z,17.59
2017-05-27T02:36:47.152Z,17.58
2017-05-27T02:37:43.515Z,17.57
2017-05-27T02:38:40.799Z,17.56
2017-05-27T02:39:37.944Z,17.56
2017-05-27T02:40:34.335Z,17.55
2017-05-27T02:41:31.472Z,17.54
2017-05-27T02:42:28.760Z,17.54
2017-05-27T02:43:25.928Z,17.53
2017-05-27T02:44:22.299Z,17.51
2017-05-27T02:45:18.684Z,17.51
2017-05-27T02:46:15.016Z,17.50
2017-05-27T02:47:11.295Z,17.50
2017-05-27T02:48:07.591Z,17.48
2017-05-27T02:49:03.895Z,17.47
2017-05-27T02:50:00.215Z,17.46
2017-05-27T02:50:57.334Z,17.44
2017-05-27T02:51:54.740Z,17.43
2017-05-27T02:52:51.039Z,17.42
2017-05-27T02:53:48.224Z,17.42
2017-05-27T02:54:44.522Z,17.40
2017-05-27T02:55:41.635Z,17.39
2017-05-27T02:56:37.935Z,17.38
2017-05-27T02:57:34.194Z,17.37
2017-05-27T02:58:30.535Z,17.36
2017-05-27T02:59:26.839Z,17.35
2017-05-27T03:00:23.256Z,17.34
2017-05-27T03:01:19.551Z,17.32
2017-05-27T03:02:15.840Z,17.31
2017-05-27T03:03:12.144Z,17.30
2017-05-27T03:04:09.289Z,17.29
2017-05-27T03:05:05.664Z,17.27
2017-05-27T03:06:01.971Z,17.27
2017-05-27T03:06:58.303Z,17.24
2017-05-27T03:07:54.683Z,17.22
2017-05-27T03:08:51.003Z,17.21
2017-05-27T03:09:48.156Z,17.19
2017-05-27T03:10:44.467Z,17.16
2017-05-27T03:11:40.750Z,17.14
2017-05-27T03:12:37.067Z,17.12
2017-05-27T03:13:33.347Z,17.10
2017-05-27T03:14:29.631Z,17.09
2017-05-27T03:15:25.927Z,17.06
2017-05-27T03:16:23.216Z,17.04
2017-05-27T03:17:19.516Z,16.99
2017-05-27T03:18:15.815Z,16.97
2017-05-27T03:19:12.147Z,16.95
2017-05-27T03:20:09.452Z,16.93
2017-05-27T03:21:06.608Z,16.90
2017-05-27T03:22:02.980Z,16.87
2017-05-27T03:23:00.295Z,16.86
2017-05-27T03:23:57.556Z,16.82
2017-05-27T03:24:53.844Z,16.81
2017-05-27T03:25:51.147Z,16.78
2017-05-27T03:26:47.556Z,16.77
2017-05-27T03:27:43.920Z,16.75
2017-05-27T03:28:41.275Z,16.72
2017-05-27T03:29:37.712Z,16.70
2017-05-27T03:30:34.015Z,16.68
2017-05-27T03:31:30.408Z,16.64
2017-05-27T03:33:33.824Z,16.61
2017-05-27T03:34:30.163Z,16.58
2017-05-27T03:35:27.575Z,16.56
2017-05-27T03:36:24.020Z,16.53
2017-05-27T03:37:20.692Z,16.51
2017-05-27T03:38:17.116Z,16.50
2017-05-27T03:39:15.241Z,16.48
2017-05-27T03:40:11.699Z,16.46
2017-05-27T03:41:07.983Z,16.44
2017-05-27T03:42:04.343Z,16.42
2017-05-27T03:43:00.687Z,16.40
2017-05-27T03:43:56.964Z,16.38
2017-05-27T03:44:53.279Z,16.36
2017-05-27T03:45:50.611Z,16.34
2017-05-27T03:46:46.903Z,16.32
2017-05-27T03:47:43.224Z,16.30
2017-05-27T03:48:40.404Z,16.29
2017-05-27T03:49:36.751Z,16.28
2017-05-27T03:50:33.023Z,16.26
2017-05-27T03:51:31.238Z,16.25
2017-05-27T03:52:27.544Z,16.24
2017-05-27T03:53:25.805Z,16.21
2017-05-27T03:54:22.092Z,16.19
2017-05-27T03:55:18.371Z,16.18
2017-05-27T03:56:15.572Z,16.17
2017-05-27T03:57:11.879Z,16.16
2017-05-27T03:58:09.071Z,16.16
2017-05-27T03:59:05.358Z,16.14
2017-05-27T04:00:01.674Z,16.11
2017-05-27T04:00:59.840Z,16.11
2017-05-27T04:01:56.171Z,16.09
2017-05-27T04:02:52.520Z,16.08
2017-05-27T04:03:48.833Z,16.07
2017-05-27T04:04:46.267Z,16.06
2017-05-27T04:05:42.641Z,16.05
2017-05-27T04:06:38.955Z,16.02
2017-05-27T04:07:36.268Z,16.01
2017-05-27T04:08:32.636Z,16.00
2017-05-27T04:09:28.922Z,15.99
2017-05-27T04:10:26.075Z,15.98
2017-05-27T04:11:23.179Z,15.97
2017-05-27T04:12:20.404Z,15.97
2017-05-27T04:13:18.704Z,15.97
2017-05-27T04:14:15.121Z,15.95
2017-05-27T04:15:12.231Z,15.94
2017-05-27T04:16:08.515Z,15.94
2017-05-27T04:17:05.763Z,15.92
2017-05-27T04:18:02.099Z,15.92
2017-05-27T04:18:58.419Z,15.91
2017-05-27T04:19:54.755Z,15.90
2017-05-27T04:20:52.081Z,15.90
2017-05-27T04:21:48.411Z,15.89
2017-05-27T04:22:46.743Z,15.89
2017-05-27T04:23:44.007Z,15.89
2017-05-27T04:24:40.328Z,15.87
2017-05-27T04:26:41.672Z,15.88
2017-05-27T04:27:40.021Z,15.87
2017-05-27T04:28:36.404Z,15.87
2017-05-27T04:29:33.692Z,15.86
2017-05-27T04:30:30.087Z,15.85
2017-05-27T04:31:27.296Z,15.86
2017-05-27T04:32:25.640Z,15.86
2017-05-27T04:33:21.959Z,15.86
2017-05-27T04:34:18.380Z,15.86
2017-05-27T04:36:23.600Z,15.88
2017-05-27T04:37:21.803Z,15.87
2017-05-27T04:38:18.208Z,15.89
2017-05-27T04:39:15.525Z,15.89
2017-05-27T04:40:12.655Z,15.88
2017-05-27T04:41:09.959Z,15.88
2017-05-27T04:42:06.272Z,15.90
2017-05-27T04:43:03.403Z,15.89
2017-05-27T04:43:59.852Z,15.90
2017-05-27T04:44:56.372Z,15.90
2017-05-27T04:45:52.711Z,15.92
2017-05-27T04:46:50.948Z,15.92
2017-05-27T04:47:47.299Z,15.93
2017-05-27T04:48:43.620Z,15.93
2017-05-27T04:49:40.152Z,15.94
2017-05-27T04:50:36.475Z,15.96
2017-05-27T04:51:33.767Z,15.98
2017-05-27T04:52:30.176Z,15.99
2017-05-27T04:53:27.356Z,16.00
2017-05-27T04:54:23.691Z,16.01
2017-05-27T04:55:21.018Z,16.04
2017-05-27T04:56:17.388Z,16.05
2017-05-27T04:57:13.808Z,16.07
2017-05-27T04:58:11.031Z,16.07
2017-05-27T04:59:08.268Z,16.10
2017-05-27T05:00:04.917Z,16.11
2017-05-27T05:01:01.339Z,16.13
2017-05-27T05:01:57.717Z,16.15
2017-05-27T05:02:54.217Z,16.17
2017-05-27T05:03:50.799Z,16.19
2017-05-27T05:04:47.104Z,16.21
2017-05-27T05:05:47.524Z,16.23
2017-05-27T05:06:44.657Z,16.24
2017-05-27T05:07:41.783Z,16.26
2017-05-27T05:08:38.185Z,16.29
2017-05-27T05:09:34.608Z,16.32
2017-05-27T05:10:30.963Z,16.35
2017-05-27T05:11:28.040Z,16.39
2017-05-27T05:12:26.192Z,16.41
2017-05-27T05:13:22.579Z,16.44
2017-05-27T05:14:19.753Z,16.48
2017-05-27T05:15:16.836Z,16.51
2017-05-27T05:17:24.628Z,16.58
2017-05-27T05:18:21.007Z,16.60
2017-05-27T05:19:19.212Z,16.62
2017-05-27T05:20:15.543Z,16.64
2017-05-27T05:21:11.854Z,16.68
2017-05-27T05:22:08.209Z,16.69
2017-05-27T05:23:04.746Z,16.72
2017-05-27T05:24:01.047Z,16.73
2017-05-27T05:24:58.219Z,16.75
2017-05-27T05:25:54.499Z,16.77
2017-05-27T05:26:50.807Z,16.80
2017-05-27T05:27:47.119Z,16.82
2017-05-27T05:28:45.444Z,16.82
2017-05-27T05:29:41.815Z,16.84
2017-05-27T05:30:38.903Z,16.87
2017-05-27T05:31:36.004Z,16.89
2017-05-27T05:32:32.336Z,16.92
2017-05-27T05:33:28.684Z,16.94
2017-05-27T05:34:26.004Z,16.96
2017-05-27T05:35:24.421Z,16.99
2017-05-27T05:36:21.836Z,17.02
2017-05-27T05:37:18.139Z,17.06
2017-05-27T05:40:27.695Z,17.13
2017-05-27T05:41:23.991Z,17.17
2017-05-27T05:42:20.291Z,17.19
2017-05-27T05:43:16.575Z,17.21
2017-05-27T05:45:25.328Z,17.22
2017-05-27T05:46:23.604Z,17.23
2017-05-27T05:47:20.172Z,17.23
2017-05-27T05:48:16.591Z,17.24
2017-05-27T05:49:12.905Z,17.24
2017-05-27T05:50:09.233Z,17.25
2017-05-27T05:51:06.448Z,17.27
2017-05-27T05:52:02.900Z,17.27
2017-05-27T05:53:00.098Z,17.28
2017-05-27T05:53:56.516Z,17.29
2017-05-27T05:54:52.877Z,17.30
2017-05-27T05:55:51.121Z,17.31
2017-05-27T05:56:47.484Z,17.33
2017-05-27T05:57:44.933Z,17.35
2017-05-27T05:58:42.300Z,17.35
2017-05-27T05:59:38.717Z,17.37
2017-05-27T06:00:36.860Z,17.37
2017-05-27T06:01:33.152Z,17.40
2017-05-27T06:02:30.315Z,17.42
2017-05-27T06:03:27.465Z,17.44
2017-05-27T06:04:23.763Z,17.46
2017-05-27T06:05:21.227Z,17.47
2017-05-27T06:06:17.603Z,17.49
2017-05-27T06:07:14.815Z,17.51
2017-05-27T06:08:11.139Z,17.53
2017-05-27T06:09:07.488Z,17.56
2017-05-27T06:10:03.800Z,17.57
2017-05-27T06:11:00.087Z,17.59
2017-05-27T06:11:56.611Z,17.62
2017-05-27T06:12:52.895Z,17.64
2017-05-27T06:13:49.247Z,17.66
2017-05-27T06:14:45.560Z,17.69
2017-05-27T06:15:42.728Z,17.71
2017-05-27T06:16:39.111Z,17.73
2017-05-27T06:17:37.456Z,17.76
2017-05-27T06:18:33.782Z,17.79
2017-05-27T06:19:30.184Z,17.81
2017-05-27T06:20:26.483Z,17.82
2017-05-27T06:21:23.788Z,17.84
2017-05-27T06:22:20.206Z,17.86
2017-05-27T06:23:18.432Z,17.88
2017-05-27T06:24:14.794Z,17.89
2017-05-27T06:25:11.074Z,17.90
2017-05-27T06:26:07.358Z,17.92
2017-05-27T06:27:03.667Z,17.93
2017-05-27T06:27:59.975Z,17.96
2017-05-27T06:28:58.138Z,17.98
2017-05-27T06:29:54.539Z,18.01
2017-05-27T06:30:50.812Z,18.04
2017-05-27T06:31:49.056Z,18.05
2017-05-27T06:32:45.379Z,18.07
2017-05-27T06:33:41.663Z,18.11
2017-05-27T06:34:37.940Z,18.13
2017-05-27T06:35:34.260Z,18.14
2017-05-27T06:36:30.542Z,18.18
2017-05-27T06:37:26.823Z,18.20
2017-05-27T06:38:24.060Z,18.23
2017-05-27T06:39:20.380Z,18.25
2017-05-27T06:43:46.624Z,18.34
2017-05-27T06:44:42.960Z,18.37
2017-05-27T06:45:39.235Z,18.40
2017-05-27T06:46:35.498Z,18.41
2017-05-27T06:47:31.755Z,18.43
2017-05-27T06:48:28.088Z,18.46
2017-05-27T06:49:24.419Z,18.48
2017-05-27T06:50:22.643Z,18.49
2017-05-27T06:51:18.967Z,18.51
2017-05-27T06:52:17.331Z,18.54
2017-05-27T06:53:13.700Z,18.56
2017-05-27T06:54:10.867Z,18.58
2017-05-27T06:55:07.267Z,18.59
2017-05-27T06:56:03.561Z,18.62
2017-05-27T06:57:00.791Z,18.65
2017-05-27T06:57:59.100Z,18.66
2017-05-27T06:58:55.460Z,18.70
2017-05-27T06:59:51.761Z,18.72
2017-05-27T07:00:48.027Z,18.74
2017-05-27T07:01:44.336Z,18.78
2017-05-27T07:02:40.604Z,18.83
2017-05-27T07:03:36.883Z,18.86
2017-05-27T07:04:33.188Z,18.89
2017-05-27T07:05:29.513Z,18.93
2017-05-27T07:06:25.839Z,18.97
2017-05-27T07:07:22.127Z,19.02
2017-05-27T07:08:18.466Z,19.07
2017-05-27T07:09:14.798Z,19.11
2017-05-27T07:10:12.023Z,19.15
2017-05-27T07:11:08.328Z,19.20
2017-05-27T07:12:04.672Z,19.24
2017-05-27T07:13:01.805Z,19.27
2017-05-27T07:13:58.095Z,19.31
2017-05-27T07:14:54.360Z,19.34
2017-05-27T07:15:50.703Z,19.37
2017-05-27T07:16:47.011Z,19.39
2017-05-27T07:17:43.295Z,19.42
2017-05-27T07:18:40.340Z,19.45
2017-05-27T07:19:36.658Z,19.49
2017-05-27T07:20:32.959Z,19.51
2017-05-27T07:21:29.292Z,19.55
2017-05-27T07:22:26.607Z,19.56
2017-05-27T07:23:22.871Z,19.60
2017-05-27T07:24:20.043Z,19.64
2017-05-27T07:25:16.323Z,19.66
2017-05-27T07:26:12.623Z,19.68
2017-05-27T07:27:08.930Z,19.71
2017-05-27T07:28:05.211Z,19.74
2017-05-27T07:29:01.463Z,19.79
2017-05-27T07:29:57.741Z,19.82
2017-05-27T07:30:54.050Z,19.85
2017-05-27T07:31:50.323Z,19.88
2017-05-27T07:32:46.601Z,19.91
2017-05-27T07:33:43.763Z,19.96
2017-05-27T07:34:40.108Z,20.00
2017-05-27T07:35:36.423Z,20.03
2017-05-27T07:36:32.743Z,20.06
2017-05-27T07:37:29.051Z,20.09
2017-05-27T07:38:27.268Z,20.12
2017-05-27T07:39:23.540Z,20.17
2017-05-27T07:40:19.818Z,20.22
2017-05-27T07:41:16.085Z,20.25
2017-05-27T07:42:12.399Z,20.29
2017-05-27T07:43:08.691Z,20.33
2017-05-27T07:44:04.971Z,20.35
2017-05-27T07:45:02.263Z,20.38
2017-05-27T07:45:59.553Z,20.41
2017-05-27T07:46:55.858Z,20.44
2017-05-27T07:47:52.196Z,20.47
2017-05-27T07:48:48.580Z,20.49
2017-05-27T07:49:44.896Z,20.52
2017-05-27T07:50:41.199Z,20.55
2017-05-27T07:51:37.521Z,20.58
2017-05-27T07:52:33.862Z,20.62
2017-05-27T07:53:30.175Z,20.64
2017-05-27T07:54:26.508Z,20.68
2017-05-27T07:55:22.848Z,20.70
2017-05-27T07:56:19.149Z,20.73
2017-05-27T07:57:15.476Z,20.76
2017-05-27T07:58:11.896Z,20.78
2017-05-27T07:59:08.169Z,20.80
2017-05-27T08:00:04.471Z,20.82
2017-05-27T08:01:00.859Z,20.85
2017-05-27T08:01:57.131Z,20.87
2017-05-27T08:02:53.527Z,20.90
2017-05-27T08:03:49.800Z,20.92
2017-05-27T08:04:46.115Z,20.94
2017-05-27T08:05:42.399Z,20.95
2017-05-27T08:06:38.683Z,20.99
2017-05-27T08:07:34.956Z,21.01
2017-05-27T08:08:31.229Z,21.05
2017-05-27T08:09:27.531Z,21.08
2017-05-27T08:10:23.836Z,21.09
2017-05-27T08:11:20.095Z,21.12
2017-05-27T08:12:16.351Z,21.16
2017-05-27T08:13:12.630Z,21.18
2017-05-27T08:14:09.217Z,21.21
2017-05-27T08:15:05.698Z,21.26
2017-05-27T08:16:02.023Z,21.27
2017-05-27T08:16:58.283Z,21.31
2017-05-27T08:17:54.547Z,21.34
2017-05-27T08:18:50.794Z,21.37
2017-05-27T08:19:47.060Z,21.40
2017-05-27T08:20:43.314Z,21.43
2017-05-27T08:21:39.604Z,21.47
2017-05-27T08:22:35.903Z,21.52
2017-05-27T08:23:32.155Z,21.55
2017-05-27T08:24:28.435Z,21.58
2017-05-27T08:25:24.710Z,21.62
2017-05-27T08:26:20.963Z,21.66
2017-05-27T08:27:17.235Z,21.69
2017-05-27T08:28:14.416Z,21.72
2017-05-27T08:29:10.704Z,21.75
2017-05-27T08:30:06.971Z,21.79
2017-05-27T08:31:03.251Z,21.82
2017-05-27T08:31:59.523Z,21.86
2017-05-27T08:33:00.460Z,21.91
2017-05-27T08:34:01.414Z,21.92
2017-05-27T08:35:02.361Z,21.95
2017-05-27T08:35:58.634Z,21.98
2017-05-27T08:36:54.920Z,22.00
2017-05-27T08:37:51.180Z,22.03
2017-05-27T08:38:47.451Z,22.06
2017-05-27T08:39:43.711Z,22.09
2017-05-27T08:40:39.974Z,22.12
2017-05-27T08:41:36.248Z,22.14
2017-05-27T08:42:32.547Z,22.16
2017-05-27T08:43:28.820Z,22.20
2017-05-27T08:44:25.079Z,22.24
2017-05-27T08:45:21.331Z,22.27
2017-05-27T08:46:17.606Z,22.30
2017-05-27T08:47:13.859Z,22.33
2017-05-27T08:48:10.143Z,22.36
2017-05-27T08:49:06.399Z,22.42
2017-05-27T08:50:02.655Z,22.46
2017-05-27T08:50:59.695Z,22.49
2017-05-27T08:51:55.977Z,22.53
2017-05-27T08:52:52.224Z,22.57
2017-05-27T08:53:48.511Z,22.60
2017-05-27T08:54:44.768Z,22.64
2017-05-27T08:55:41.027Z,22.70
2017-05-27T08:56:37.289Z,22.74
2017-05-27T08:57:33.543Z,22.81
2017-05-27T08:58:29.824Z,22.88
2017-05-27T08:59:26.103Z,22.97
2017-05-27T09:00:22.383Z,23.07
2017-05-27T09:01:18.639Z,23.19
2017-05-27T09:02:14.904Z,23.30
2017-05-27T09:03:11.162Z,23.43
2017-05-27T09:04:07.440Z,23.56
2017-05-27T09:05:03.732Z,23.69
2017-05-27T09:05:59.978Z,23.83
2017-05-27T09:06:56.235Z,23.96
2017-05-27T09:07:52.495Z,24.11
2017-05-27T09:08:48.755Z,24.25
2017-05-27T09:09:45.035Z,24.39
2017-05-27T09:10:41.299Z,24.54
2017-05-27T09:11:37.555Z,24.68
2017-05-27T09:12:33.816Z,24.80
2017-05-27T09:13:30.080Z,24.95
2017-05-27T09:14:26.347Z,25.08
2017-05-27T09:15:22.623Z,25.20
2017-05-27T09:16:18.881Z,25.33
2017-05-27T09:17:15.140Z,25.46
2017-05-27T09:18:11.408Z,25.58
2017-05-27T09:19:07.698Z,25.70
2017-05-27T09:20:03.963Z,25.82
2017-05-27T09:21:00.252Z,25.93
2017-05-27T09:21:56.512Z,26.06
2017-05-27T09:22:52.771Z,26.20
2017-05-27T09:23:49.043Z,26.33
2017-05-27T09:24:45.308Z,26.44
2017-05-27T09:25:41.586Z,26.58
2017-05-27T09:26:37.871Z,26.71
2017-05-27T09:27:34.132Z,26.85
2017-05-27T09:28:30.395Z,26.98
2017-05-27T09:29:26.656Z,27.11
2017-05-27T09:30:22.930Z,27.22
2017-05-27T09:31:19.227Z,27.32
2017-05-27T09:32:15.487Z,27.44
2017-05-27T09:33:11.736Z,27.54
2017-05-27T09:34:08.001Z,27.64
2017-05-27T09:35:04.292Z,27.75
2017-05-27T09:36:00.563Z,27.87
2017-05-27T09:36:56.840Z,27.98
2017-05-27T09:37:53.099Z,28.08
2017-05-27T09:38:49.348Z,28.19
2017-05-27T09:39:45.618Z,28.29
2017-05-27T09:40:41.891Z,28.39
2017-05-27T09:41:38.151Z,28.48
2017-05-27T09:42:34.436Z,28.59
2017-05-27T09:43:30.695Z,28.67
2017-05-27T09:44:26.963Z,28.77
2017-05-27T09:45:23.231Z,28.86
2017-05-27T09:46:19.495Z,28.95
2017-05-27T09:47:15.771Z,29.03
2017-05-27T09:48:12.087Z,29.13
2017-05-27T09:49:08.371Z,29.21
2017-05-27T09:50:04.639Z,29.29
2017-05-27T09:51:00.907Z,29.38
2017-05-27T09:51:57.166Z,29.45
2017-05-27T09:52:53.430Z,29.52
2017-05-27T09:53:49.703Z,29.59
2017-05-27T09:54:45.982Z,29.65
2017-05-27T09:55:42.247Z,29.71
2017-05-27T09:56:38.531Z,29.78
2017-05-27T09:57:34.803Z,29.81
2017-05-27T09:58:31.206Z,29.85
2017-05-27T09:59:27.503Z,29.88
2017-05-27T10:00:23.759Z,29.92
2017-05-27T10:01:20.027Z,29.95
2017-05-27T10:02:16.296Z,29.95
2017-05-27T10:03:12.559Z,29.97
2017-05-27T10:04:08.827Z,29.97
2017-05-27T10:05:05.106Z,29.97
2017-05-27T10:06:01.366Z,29.98
2017-05-27T10:06:57.623Z,30.01
2017-05-27T10:07:53.896Z,30.03
2017-05-27T10:08:50.170Z,30.05
2017-05-27T10:09:46.440Z,30.07
2017-05-27T10:10:42.715Z,30.07
2017-05-27T10:11:38.990Z,30.09
2017-05-27T10:12:35.247Z,30.11
2017-05-27T10:13:31.518Z,30.13
2017-05-27T10:14:27.788Z,30.15
2017-05-27T10:15:24.063Z,30.14
2017-05-27T10:16:20.319Z,30.13
2017-05-27T10:17:16.575Z,30.13
2017-05-27T10:18:12.851Z,30.11
2017-05-27T10:19:09.118Z,30.12
2017-05-27T10:20:05.375Z,30.14
2017-05-27T10:21:01.652Z,30.14
2017-05-27T10:21:57.928Z,30.13
2017-05-27T10:22:54.228Z,30.14
2017-05-27T10:23:50.503Z,30.12
2017-05-27T10:24:46.772Z,30.13
2017-05-27T10:25:43.043Z,30.12
2017-05-27T10:26:39.311Z,30.10
2017-05-27T10:27:35.584Z,30.09
2017-05-27T10:28:31.864Z,30.10
2017-05-27T10:29:28.143Z,30.10
2017-05-27T10:30:24.395Z,30.11
2017-05-27T10:31:20.683Z,30.10
2017-05-27T10:32:16.941Z,30.11
2017-05-27T10:33:13.194Z,30.11
2017-05-27T10:34:09.463Z,30.12
2017-05-27T10:35:05.719Z,30.12
2017-05-27T10:36:01.983Z,30.13
2017-05-27T10:36:58.275Z,30.14
2017-05-27T10:37:54.547Z,30.16
2017-05-27T10:38:50.823Z,30.14
2017-05-27T10:39:47.096Z,30.13
2017-05-27T10:40:43.375Z,30.12
2017-05-27T10:41:39.640Z,30.12
2017-05-27T10:42:35.935Z,30.12
2017-05-27T10:43:32.200Z,30.12
2017-05-27T10:44:28.495Z,30.12
2017-05-27T10:45:25.009Z,30.12
2017-05-27T10:46:21.266Z,30.14
2017-05-27T10:47:17.528Z,30.15
2017-05-27T10:48:13.813Z,30.18
2017-05-27T10:49:10.079Z,30.21
2017-05-27T10:50:06.347Z,30.22
2017-05-27T10:51:02.612Z,30.24
2017-05-27T10:51:58.862Z,30.26
2017-05-27T10:52:55.137Z,30.28
2017-05-27T10:53:51.432Z,30.30
2017-05-27T10:54:47.695Z,30.33
2017-05-27T10:55:43.959Z,30.35
2017-05-27T10:56:40.251Z,30.37
2017-05-27T10:57:36.533Z,30.39
2017-05-27T10:58:32.819Z,30.41
2017-05-27T10:59:29.087Z,30.43
2017-05-27T11:00:25.351Z,30.46
2017-05-27T11:01:21.610Z,30.49
2017-05-27T11:02:17.875Z,30.52
2017-05-27T11:03:14.131Z,30.55
2017-05-27T11:04:10.411Z,30.58
2017-05-27T11:05:06.700Z,30.60
2017-05-27T11:06:02.978Z,30.62
2017-05-27T11:06:59.239Z,30.65
2017-05-27T11:07:55.499Z,30.66
2017-05-27T11:08:51.779Z,30.67
2017-05-27T11:09:48.079Z,30.66
2017-05-27T11:10:44.356Z,30.63
2017-05-27T11:11:40.626Z,30.63
2017-05-27T11:12:36.894Z,30.63
2017-05-27T11:13:33.167Z,30.64
2017-05-27T11:14:29.452Z,30.64
2017-05-27T11:15:25.722Z,30.66
2017-05-27T11:16:21.986Z,30.67
2017-05-27T11:17:18.244Z,30.69
2017-05-27T11:18:14.530Z,30.72
2017-05-27T11:19:10.798Z,30.76
2017-05-27T11:20:07.071Z,30.77
2017-05-27T11:21:03.328Z,30.79
2017-05-27T11:21:59.636Z,30.81
2017-05-27T11:22:55.919Z,30.84
2017-05-27T11:23:52.183Z,30.85
2017-05-27T11:24:48.442Z,30.86
2017-05-27T11:25:44.749Z,30.88
2017-05-27T11:26:41.028Z,30.89
2017-05-27T11:27:37.299Z,30.94
2017-05-27T11:28:33.559Z,30.96
2017-05-27T11:29:29.823Z,31.00
2017-05-27T11:30:26.099Z,31.03
2017-05-27T11:31:22.375Z,31.06
2017-05-27T11:32:18.639Z,31.09
2017-05-27T11:33:14.894Z,31.09
2017-05-27T11:34:11.151Z,31.10
2017-05-27T11:35:07.413Z,31.11
2017-05-27T11:36:03.712Z,31.12
2017-05-27T11:37:00.876Z,31.14
2017-05-27T11:37:57.143Z,31.15
2017-05-27T11:38:53.406Z,31.18
2017-05-27T11:39:49.667Z,31.18
2017-05-27T11:40:45.952Z,31.19
2017-05-27T11:41:42.243Z,31.19
2017-05-27T11:42:38.551Z,31.20
2017-05-27T11:43:34.807Z,31.21
2017-05-27T11:44:31.075Z,31.20
2017-05-27T11:45:27.343Z,31.20
2017-05-27T11:46:23.603Z,31.21
2017-05-27T11:47:19.888Z,31.21
2017-05-27T11:48:16.163Z,31.21
2017-05-27T11:49:12.416Z,31.21
2017-05-27T11:50:08.670Z,31.21
2017-05-27T11:51:04.943Z,31.24
2017-05-27T11:52:01.190Z,31.25
2017-05-27T11:52:57.471Z,31.26
2017-05-27T11:53:53.747Z,31.27
2017-05-27T11:54:50.010Z,31.30
2017-05-27T11:55:46.267Z,31.30
2017-05-27T11:56:42.544Z,31.31
2017-05-27T11:57:38.838Z,31.34
2017-05-27T11:58:35.097Z,31.36
2017-05-27T11:59:31.366Z,31.38
2017-05-27T12:00:27.651Z,31.39
2017-05-27T12:01:23.919Z,31.40
2017-05-27T12:02:20.183Z,31.41
2017-05-27T12:03:16.459Z,31.42
2017-05-27T12:04:12.770Z,31.43
2017-05-27T12:05:09.079Z,31.45
2017-05-27T12:06:05.339Z,31.44
2017-05-27T12:07:01.614Z,31.43
2017-05-27T12:07:57.875Z,31.44
2017-05-27T12:08:54.175Z,31.43
2017-05-27T12:09:50.446Z,31.41
2017-05-27T12:10:46.719Z,31.40
2017-05-27T12:11:42.987Z,31.40
2017-05-27T12:12:39.246Z,31.40
2017-05-27T12:13:35.513Z,31.40
2017-05-27T12:14:31.787Z,31.43
2017-05-27T12:15:28.047Z,31.44
2017-05-27T12:16:24.313Z,31.46
2017-05-27T12:17:20.590Z,31.49
2017-05-27T12:18:16.828Z,31.50
2017-05-27T12:19:13.087Z,31.53
2017-05-27T12:20:09.359Z,31.54
2017-05-27T12:21:05.618Z,31.55
2017-05-27T12:22:01.879Z,31.56
2017-05-27T12:22:58.172Z,31.56
2017-05-27T12:23:54.459Z,31.56
2017-05-27T12:24:50.767Z,31.57
2017-05-27T12:25:47.017Z,31.56
2017-05-27T12:26:43.267Z,31.59
2017-05-27T12:27:39.514Z,31.59
2017-05-27T12:28:35.787Z,31.60
2017-05-27T12:29:32.040Z,31.62
2017-05-27T12:30:28.322Z,31.61
2017-05-27T12:31:24.603Z,31.64
2017-05-27T12:32:20.868Z,31.63
2017-05-27T12:33:17.127Z,31.64
2017-05-27T12:34:13.382Z,31.65
2017-05-27T12:35:09.650Z,31.66
2017-05-27T12:36:05.937Z,31.70
2017-05-27T12:37:02.199Z,31.72